Time;durP1;ratioP1;P1;durP2;ratioP2;P2;SDS_P1;SDS_P2;PMS_P1;PMS_P2;Temp;Humidity;BMP_temperature;BMP_pressure;BME280_temperature;BME280_humidity;BME280_pressure;Samples;Min_cycle;Max_cycle;Signal;HPM_P1;HPM_P2
2021/11/17 02:27:05;;;;;;;12.70;11.45;;;10.20;78.00;;;;;;5011304;28;20053;-77
2021/11/17 02:29:43;;;;;;;12.00;10.98;;;10.20;78.10;;;;;;5011768;28;20041;-77
2021/11/17 02:32:16;;;;;;;10.63;9.68;;;10.10;78.00;;;;;;5011481;28;20038;-77
2021/11/17 02:35:15;;;;;;;10.65;9.95;;;10.10;78.10;;;;;;5011719;28;20497;-77
2021/11/17 02:38:19;;;;;;;11.07;10.48;;;10.10;78.20;;;;;;5051563;28;20044;-77
2021/11/17 02:40:58;;;;;;;11.02;10.05;;;10.10;78.30;;;;;;5051726;28;20025;-77
2021/11/17 02:43:53;;;;;;;10.77;9.30;;;10.00;78.20;;;;;;5051090;28;20048;-77
2021/11/17 02:46:37;;;;;;;11.18;10.20;;;10.00;78.30;;;;;;5038068;28;20037;-77
2021/11/17 02:49:25;;;;;;;8.93;8.43;;;10.00;78.30;;;;;;5049315;28;20024;-77
2021/11/17 02:52:00;;;;;;;10.50;9.80;;;10.00;78.30;;;;;;5048323;28;20041;-77
2021/11/17 02:54:54;;;;;;;10.82;9.85;;;9.90;78.20;;;;;;5053563;28;20033;-77
2021/11/17 02:57:26;;;;;;;14.70;10.15;;;9.90;78.20;;;;;;5050615;28;20382;-77
2021/11/17 03:00:25;;;;;;;9.10;8.50;;;9.90;78.20;;;;;;5050988;28;20531;-77
2021/11/17 03:02:57;;;;;;;9.77;9.07;;;9.90;78.30;;;;;;5042705;28;20051;-77
2021/11/17 03:06:02;;;;;;;9.30;8.70;;;9.80;79.00;;;;;;5046095;28;20869;-77
2021/11/17 03:08:47;;;;;;;9.30;8.65;;;9.80;78.30;;;;;;4956325;28;20034;-77
2021/11/17 03:11:31;;;;;;;8.50;7.93;;;9.80;78.10;;;;;;4969453;28;20428;-77
2021/11/17 03:14:11;;;;;;;11.52;9.02;;;9.80;78.20;;;;;;4982663;28;20045;-77
2021/11/17 03:17:09;;;;;;;9.25;8.63;;;9.80;78.20;;;;;;4988101;28;20037;-77
2021/11/17 03:19:41;;;;;;;9.15;8.55;;;9.80;78.30;;;;;;4928837;29;20425;-77
2021/11/17 03:22:23;;;;;;;8.68;8.02;;;9.80;78.30;;;;;;4927988;29;20055;-77
2021/11/17 03:24:52;;;;;;;9.68;8.98;;;9.70;78.40;;;;;;4930234;29;20328;-77
2021/11/17 03:27:32;;;;;;;10.02;9.30;;;9.70;78.40;;;;;;4929757;29;20035;-77
2021/11/17 03:30:10;;;;;;;20.75;8.75;;;9.70;78.50;;;;;;4929880;29;20059;-77
2021/11/17 03:32:47;;;;;;;8.43;7.82;;;9.60;78.40;;;;;;4926919;29;20039;-76
2021/11/17 03:35:25;;;;;;;9.07;8.20;;;9.60;78.40;;;;;;4927430;29;20488;-77
2021/11/17 03:38:29;;;;;;;9.38;8.45;;;9.60;78.40;;;;;;4935866;29;20052;-77
2021/11/17 03:41:07;;;;;;;9.00;8.25;;;9.70;78.50;;;;;;4886980;29;20412;-77
2021/11/17 03:43:36;;;;;;;8.50;7.90;;;9.60;78.50;;;;;;4901470;29;20059;-77
2021/11/17 03:46:17;;;;;;;9.60;8.95;;;9.60;78.50;;;;;;4945730;29;20046;-77
2021/11/17 03:48:47;;;;;;;14.82;9.55;;;9.60;79.30;;;;;;4948050;29;20409;-76
2021/11/17 03:51:22;;;;;;;9.60;9.00;;;9.60;78.60;;;;;;4936884;29;20434;-77
2021/11/17 03:54:09;;;;;;;9.40;8.85;;;9.60;78.60;;;;;;4936868;29;20104;-77
2021/11/17 03:56:44;;;;;;;14.93;9.75;;;9.60;78.50;;;;;;4967412;28;20046;-76
2021/11/17 03:59:27;;;;;;;9.15;8.70;;;9.60;78.40;;;;;;4993311;28;20050;-76
2021/11/17 04:02:16;;;;;;;10.73;9.20;;;9.60;78.40;;;;;;4978451;28;20042;-76
2021/11/17 04:05:03;;;;;;;8.30;7.78;;;9.70;78.40;;;;;;4992908;28;20045;-77
2021/11/17 04:07:29;;;;;;;10.15;9.45;;;9.70;78.30;;;;;;4974681;28;20037;-76
2021/11/17 04:10:10;;;;;;;10.50;9.63;;;9.70;78.20;;;;;;4998362;28;20030;-76
2021/11/17 04:13:00;;;;;;;10.65;9.85;;;9.80;78.20;;;;;;4997753;28;20041;-77
2021/11/17 04:16:06;;;;;;;10.07;9.40;;;9.80;78.10;;;;;;4993824;28;20030;-77
2021/11/17 04:18:42;;;;;;;9.98;9.18;;;9.80;78.10;;;;;;5039846;28;20041;-77
2021/11/17 04:21:32;;;;;;;9.10;8.55;;;9.80;78.20;;;;;;5049734;28;20037;-76
2021/11/17 04:24:16;;;;;;;9.48;8.68;;;9.90;78.20;;;;;;5046684;28;20053;-76
2021/11/17 04:26:42;;;;;;;9.55;9.05;;;9.90;78.20;;;;;;5049973;28;20047;-76
2021/11/17 04:29:50;;;;;;;8.23;7.82;;;9.90;78.20;;;;;;5049085;28;20033;-76
2021/11/17 04:32:31;;;;;;;9.00;8.50;;;9.90;78.20;;;;;;5029945;28;20041;-76
2021/11/17 04:35:03;;;;;;;9.73;9.02;;;9.90;78.20;;;;;;5033085;28;20192;-76
2021/11/17 04:37:48;;;;;;;9.93;9.15;;;10.00;78.20;;;;;;5014841;28;20049;-76
2021/11/17 04:40:23;;;;;;;8.75;8.30;;;10.00;78.30;;;;;;4998773;28;20021;-76
2021/11/17 04:42:55;;;;;;;10.27;9.45;;;10.00;78.10;;;;;;5036752;28;20494;-76
2021/11/17 04:46:05;;;;;;;8.63;8.15;;;10.00;78.10;;;;;;5042940;28;20056;-76
2021/11/17 04:48:58;;;;;;;9.13;8.63;;;10.00;78.20;;;;;;4968832;28;20058;-76
2021/11/17 04:51:51;;;;;;;10.55;9.55;;;10.00;78.10;;;;;;4957535;28;20488;-76
2021/11/17 04:54:39;;;;;;;10.18;9.25;;;10.00;78.10;;;;;;4955013;29;20059;-76
2021/11/17 04:57:34;;;;;;;10.25;7.95;;;10.00;78.10;;;;;;4934909;29;20485;-76
2021/11/17 05:00:29;;;;;;;17.17;9.57;;;10.10;78.20;;;;;;4948597;28;20039;-76
2021/11/17 05:03:04;;;;;;;8.70;8.07;;;10.10;78.20;;;;;;4942011;28;20047;-76
2021/11/17 05:05:40;;;;;;;13.50;10.55;;;10.10;78.10;;;;;;4950363;29;20058;-76
2021/11/17 05:08:39;;;;;;;9.90;9.07;;;10.10;78.10;;;;;;4942623;29;20516;-76
2021/11/17 05:11:40;;;;;;;8.38;7.88;;;10.10;78.20;;;;;;4954384;28;20101;-76
2021/11/17 05:14:18;;;;;;;9.40;8.70;;;10.10;78.20;;;;;;4965239;28;20373;-76
2021/11/17 05:17:15;;;;;;;10.18;9.45;;;10.10;78.20;;;;;;4958412;28;20050;-76
2021/11/17 05:19:59;;;;;;;11.50;9.75;;;10.10;78.20;;;;;;4958754;28;20043;-76
2021/11/17 05:22:34;;;;;;;9.50;8.90;;;10.10;78.30;;;;;;4963457;28;20042;-76
2021/11/17 05:25:29;;;;;;;10.70;9.10;;;10.10;78.30;;;;;;5012786;28;20061;-76
2021/11/17 05:28:01;;;;;;;9.10;8.60;;;10.10;78.30;;;;;;5023109;28;20045;-76
2021/11/17 05:30:33;;;;;;;10.48;9.43;;;10.10;78.40;;;;;;5036309;28;20493;-76
2021/11/17 05:33:11;;;;;;;10.48;9.48;;;10.10;78.30;;;;;;5051899;28;20029;-76
2021/11/17 05:35:45;;;;;;;10.73;9.88;;;10.10;78.30;;;;;;5052236;28;20068;-76
2021/11/17 05:38:20;;;;;;;8.80;8.18;;;10.20;78.40;;;;;;5051137;28;20041;-76
2021/11/17 05:41:10;;;;;;;8.35;7.85;;;10.20;78.40;;;;;;5051390;28;20033;-76
2021/11/17 05:43:55;;;;;;;10.23;9.52;;;10.20;78.40;;;;;;5051676;28;20033;-76
2021/11/17 05:46:27;;;;;;;12.18;9.75;;;10.20;78.40;;;;;;5050768;28;20041;-76
2021/11/17 05:49:09;;;;;;;22.35;9.23;;;10.20;78.40;;;;;;5052403;28;20040;-76
2021/11/17 05:52:00;;;;;;;9.35;8.93;;;10.20;78.40;;;;;;5049966;28;20029;-76
2021/11/17 05:54:51;;;;;;;10.65;9.95;;;10.20;79.10;;;;;;5053240;28;20033;-76
2021/11/17 05:57:48;;;;;;;10.10;9.18;;;10.30;78.50;;;;;;5052651;28;20033;-76
2021/11/17 06:00:38;;;;;;;9.70;8.82;;;10.30;78.50;;;;;;5052122;28;20032;-76
2021/11/17 06:03:13;;;;;;;9.90;9.05;;;10.20;78.40;;;;;;5054219;28;20033;-76
2021/11/17 06:05:39;;;;;;;8.57;8.02;;;10.30;79.20;;;;;;5051707;28;20043;-76
2021/11/17 06:08:05;;;;;;;10.60;9.57;;;10.30;78.40;;;;;;5050590;28;20389;-76
2021/11/17 06:10:33;;;;;;;10.95;9.88;;;10.30;78.50;;;;;;5051085;28;20037;-76
2021/11/17 06:12:59;;;;;;;9.65;8.77;;;10.30;78.50;;;;;;5032931;28;20041;-76
2021/11/17 06:15:25;;;;;;;10.00;9.05;;;10.30;78.50;;;;;;5035662;28;20393;-76
2021/11/17 06:17:52;;;;;;;9.55;8.75;;;10.30;78.50;;;;;;5052113;28;20072;-77
2021/11/17 06:20:19;;;;;;;8.13;7.72;;;10.30;78.50;;;;;;5047263;28;20041;-79
2021/11/17 06:22:47;;;;;;;8.90;8.40;;;10.30;78.50;;;;;;5051671;28;20036;-77
2021/11/17 06:25:14;;;;;;;9.85;9.15;;;10.30;78.50;;;;;;5052558;28;20037;-78
2021/11/17 06:27:45;;;;;;;8.40;8.00;;;10.30;78.50;;;;;;5047222;28;20301;-77
2021/11/17 06:30:13;;;;;;;10.18;9.55;;;10.30;78.50;;;;;;5052203;28;20393;-77
2021/11/17 06:32:39;;;;;;;9.80;9.20;;;10.30;78.50;;;;;;5050214;28;20482;-77
2021/11/17 06:35:05;;;;;;;9.45;8.85;;;10.30;78.50;;;;;;5051005;28;20489;-77
2021/11/17 06:37:31;;;;;;;9.88;9.18;;;10.30;78.50;;;;;;5050753;28;20040;-77
2021/11/17 06:39:59;;;;;;;10.35;9.65;;;10.30;78.70;;;;;;5032627;28;20045;-76
2021/11/17 06:42:34;;;;;;;8.90;8.30;;;10.20;79.40;;;;;;5029645;28;20037;-76
2021/11/17 06:45:02;;;;;;;8.07;7.63;;;10.20;78.70;;;;;;5042700;28;20041;-76
2021/11/17 06:47:28;;;;;;;8.10;7.43;;;10.20;78.80;;;;;;5045190;28;20033;-76
2021/11/17 06:49:54;;;;;;;8.63;7.90;;;10.10;78.80;;;;;;5046509;28;20029;-76
2021/11/17 06:52:21;;;;;;;10.70;8.40;;;10.10;78.80;;;;;;5045233;28;20427;-76
2021/11/17 06:54:47;;;;;;;9.43;8.73;;;10.10;78.90;;;;;;5044322;28;20041;-77
2021/11/17 06:57:14;;;;;;;10.40;9.80;;;10.00;78.90;;;;;;5049698;28;20520;-78
2021/11/17 06:59:40;;;;;;;11.98;10.95;;;10.00;79.00;;;;;;5051669;28;20025;-77
2021/11/17 07:02:06;;;;;;;10.73;10.18;;;10.00;79.10;;;;;;5049753;28;20033;-78
2021/11/17 07:04:33;;;;;;;10.77;10.18;;;9.90;79.20;;;;;;5050238;28;20040;-77
2021/11/17 07:06:59;;;;;;;12.80;11.65;;;9.80;79.20;;;;;;5048543;28;20033;-77
2021/11/17 07:09:25;;;;;;;14.00;12.82;;;9.80;79.20;;;;;;5051103;28;20032;-77
2021/11/17 07:11:51;;;;;;;11.70;10.50;;;9.80;79.30;;;;;;5048943;28;20056;-75
2021/11/17 07:14:22;;;;;;;9.52;8.75;;;9.80;79.40;;;;;;5050059;28;20044;-75
2021/11/17 07:16:48;;;;;;;9.07;8.57;;;9.70;79.30;;;;;;5049605;28;20036;-75
2021/11/17 07:19:15;;;;;;;9.07;8.43;;;9.70;79.40;;;;;;5049114;28;20042;-77
2021/11/17 07:21:42;;;;;;;9.70;8.90;;;9.70;79.40;;;;;;5030847;28;20300;-77
2021/11/17 07:24:08;;;;;;;8.82;8.27;;;9.70;79.40;;;;;;5051010;28;20524;-78
2021/11/17 07:26:34;;;;;;;10.32;8.38;;;9.60;79.40;;;;;;5048068;28;20494;-77
2021/11/17 07:29:00;;;;;;;10.25;9.32;;;9.60;79.40;;;;;;5048418;28;20040;-77
2021/11/17 07:31:26;;;;;;;9.43;8.65;;;9.70;80.20;;;;;;5050507;28;20036;-77
2021/11/17 07:33:53;;;;;;;8.65;8.10;;;9.60;79.40;;;;;;5049526;28;20075;-76
2021/11/17 07:36:21;;;;;;;9.35;8.65;;;9.60;79.40;;;;;;5052786;28;20517;-75
2021/11/17 07:38:47;;;;;;;8.93;8.25;;;9.60;79.50;;;;;;5049000;28;20028;-75
2021/11/17 07:41:13;;;;;;;11.18;10.02;;;9.60;79.40;;;;;;5050316;28;20183;-76
2021/11/17 07:43:39;;;;;;;11.07;10.05;;;9.60;79.40;;;;;;5049997;28;20029;-80
2021/11/17 07:46:06;;;;;;;9.10;8.60;;;9.60;79.40;;;;;;5048420;28;20045;-79
2021/11/17 07:48:32;;;;;;;8.52;8.07;;;9.60;79.30;;;;;;5050816;28;20104;-79
2021/11/17 07:50:58;;;;;;;12.93;9.55;;;9.70;79.40;;;;;;5049823;28;20033;-79
2021/11/17 07:53:25;;;;;;;9.52;8.90;;;9.70;79.40;;;;;;5049164;28;20037;-78
2021/11/17 07:55:52;;;;;;;9.60;8.98;;;9.70;79.30;;;;;;5049586;28;20059;-78
2021/11/17 07:58:19;;;;;;;9.10;8.60;;;9.70;79.30;;;;;;5049031;28;20496;-83
2021/11/17 08:00:54;;;;;;;10.45;9.73;;;9.70;79.30;;;;;;5047100;28;20401;-83
2021/11/17 08:03:21;;;;;;;9.20;8.52;;;9.80;79.40;;;;;;5029824;28;20029;-82
2021/11/17 08:05:48;;;;;;;9.77;9.02;;;9.90;79.20;;;;;;5042457;28;20045;-83
2021/11/17 08:08:15;;;;;;;25.45;9.27;;;10.00;79.00;;;;;;5036584;28;20025;-83
2021/11/17 08:10:41;;;;;;;9.32;8.45;;;10.10;79.70;;;;;;5009406;28;20513;-84
2021/11/17 08:13:07;;;;;;;8.65;8.05;;;10.20;78.80;;;;;;5013931;28;20394;-84
2021/11/17 08:15:33;;;;;;;9.68;8.77;;;10.30;78.70;;;;;;5046802;28;20041;-85
2021/11/17 08:17:59;;;;;;;9.05;8.35;;;10.30;78.50;;;;;;5045263;28;20044;-85
2021/11/17 08:20:26;;;;;;;8.98;8.38;;;10.40;78.50;;;;;;5042149;28;20026;-84
2021/11/17 08:22:54;;;;;;;9.88;9.05;;;10.40;78.50;;;;;;5039590;28;20033;-85
2021/11/17 08:25:22;;;;;;;12.40;8.52;;;10.50;78.60;;;;;;5049040;28;20068;-84
2021/11/17 08:27:48;;;;;;;8.18;7.72;;;10.60;78.70;;;;;;5042755;28;20032;-83
2021/11/17 08:30:15;;;;;;;11.45;8.75;;;10.60;78.70;;;;;;5024009;28;20033;-83
2021/11/17 08:32:42;;;;;;;14.93;8.68;;;10.70;78.60;;;;;;5022453;28;20021;-82
2021/11/17 08:35:09;;;;;;;9.15;8.48;;;10.60;78.50;;;;;;5020954;28;20032;-83
2021/11/17 08:37:35;;;;;;;8.77;8.15;;;10.70;78.60;;;;;;5040685;28;20036;-83
2021/11/17 08:40:06;;;;;;;9.55;8.88;;;10.80;78.70;;;;;;5033414;28;20031;-83
2021/11/17 08:42:32;;;;;;;7.97;7.55;;;10.80;78.50;;;;;;5047746;28;20032;-83
2021/11/17 08:44:58;;;;;;;8.90;8.27;;;10.90;78.50;;;;;;5021996;28;20050;-83
2021/11/17 08:47:24;;;;;;;7.63;7.22;;;10.90;78.40;;;;;;5038623;28;20025;-83
2021/11/17 08:49:54;;;;;;;8.20;7.70;;;11.00;78.50;;;;;;5048309;28;20056;-82
2021/11/17 08:52:21;;;;;;;8.98;8.27;;;11.00;78.40;;;;;;5047643;28;20028;-83
2021/11/17 08:54:48;;;;;;;8.48;7.95;;;11.10;78.40;;;;;;5007529;28;20037;-82
2021/11/17 08:57:16;;;;;;;11.50;8.18;;;11.10;78.30;;;;;;5018870;28;20399;-82
2021/11/17 08:59:45;;;;;;;8.65;8.20;;;11.20;78.30;;;;;;5022356;28;20030;-82
2021/11/17 09:02:11;;;;;;;8.35;7.68;;;11.20;78.30;;;;;;5025821;28;20029;-83
2021/11/17 09:04:37;;;;;;;8.27;7.82;;;11.30;78.40;;;;;;5035563;28;20041;-83
2021/11/17 09:07:04;;;;;;;8.88;8.38;;;11.30;78.40;;;;;;5039943;28;20568;-83
2021/11/17 09:09:30;;;;;;;9.48;8.82;;;11.30;79.20;;;;;;5044163;28;20036;-83
2021/11/17 09:11:56;;;;;;;7.95;7.38;;;11.40;78.40;;;;;;5029236;28;20037;-82
2021/11/17 09:14:22;;;;;;;7.68;7.28;;;11.40;78.40;;;;;;5043355;28;20029;-82
2021/11/17 09:16:48;;;;;;;8.80;7.93;;;11.50;78.40;;;;;;5029485;28;20048;-77
2021/11/17 09:19:16;;;;;;;7.97;7.57;;;11.50;78.30;;;;;;5042700;28;20040;-78
2021/11/17 09:21:44;;;;;;;9.13;8.60;;;11.60;78.30;;;;;;5022710;28;20063;-78
2021/11/17 09:24:10;;;;;;;9.27;8.50;;;11.60;78.30;;;;;;5039036;28;20037;-79
2021/11/17 09:26:37;;;;;;;8.70;8.20;;;11.60;78.30;;;;;;5034316;28;20041;-79
2021/11/17 09:29:03;;;;;;;26.58;8.77;;;11.60;78.30;;;;;;5040106;28;20030;-77
2021/11/17 09:31:30;;;;;;;9.45;8.85;;;11.60;78.30;;;;;;5045193;28;20041;-77
2021/11/17 09:33:56;;;;;;;9.57;8.90;;;11.70;78.40;;;;;;5017353;28;20025;-77
2021/11/17 09:36:25;;;;;;;9.10;8.60;;;11.70;78.40;;;;;;5035523;28;20112;-77
2021/11/17 09:38:51;;;;;;;10.30;8.32;;;11.70;78.40;;;;;;5038821;28;20416;-77
2021/11/17 09:41:24;;;;;;;8.18;7.70;;;11.70;78.40;;;;;;5047561;28;20030;-77
2021/11/17 09:44:02;;;;;;;7.65;7.30;;;11.70;78.30;;;;;;5030205;28;20028;-80
2021/11/17 09:46:28;;;;;;;8.63;8.13;;;11.70;78.40;;;;;;5035873;28;20052;-79
2021/11/17 09:49:00;;;;;;;7.40;7.10;;;11.80;78.40;;;;;;5049688;28;20036;-79
2021/11/17 09:51:48;;;;;;;8.32;7.80;;;11.80;78.40;;;;;;5042862;28;20036;-81
2021/11/17 09:54:26;;;;;;;9.80;9.13;;;11.80;78.40;;;;;;5052514;28;20021;-86
2021/11/17 09:57:03;;;;;;;7.88;7.40;;;11.90;78.50;;;;;;5046615;28;20035;-83
2021/11/17 09:59:47;;;;;;;8.00;7.60;;;12.00;78.40;;;;;;5036017;28;20505;-85
2021/11/17 10:02:44;;;;;;;13.85;8.50;;;12.10;78.40;;;;;;5029044;28;20397;-89
2021/11/17 10:05:16;;;;;;;8.82;7.95;;;12.30;78.20;;;;;;5038371;28;20049;-82
2021/11/17 10:14:27;;;;;;;8.18;7.40;;;12.70;77.80;;;;;;5002634;28;20034;-83
2021/11/17 10:16:54;;;;;;;9.73;8.82;;;12.80;77.70;;;;;;4991801;28;20034;-84
2021/11/17 10:19:22;;;;;;;8.05;7.55;;;12.90;77.60;;;;;;4991630;28;20053;-81
2021/11/17 10:21:57;;;;;;;9.90;9.13;;;13.10;77.70;;;;;;4992789;28;20495;-81
2021/11/17 10:24:37;;;;;;;7.82;7.43;;;13.10;77.60;;;;;;4991428;28;20061;-85
2021/11/17 10:27:03;;;;;;;8.32;7.85;;;13.20;77.60;;;;;;5005690;28;20552;-81
2021/11/17 10:29:41;;;;;;;9.25;8.75;;;13.30;77.60;;;;;;4996392;28;20596;-82
2021/11/17 10:32:19;;;;;;;8.80;8.30;;;13.40;77.60;;;;;;4976970;28;20127;-81
2021/11/17 10:35:03;;;;;;;8.68;8.27;;;13.50;77.60;;;;;;4991019;28;20049;-82
2021/11/17 10:37:44;;;;;;;9.27;8.68;;;13.60;77.50;;;;;;4999169;28;20045;-81
2021/11/17 10:40:16;;;;;;;8.98;8.57;;;13.70;77.50;;;;;;4975137;28;20534;-81
2021/11/17 10:42:43;;;;;;;8.57;8.15;;;13.70;77.40;;;;;;5008977;28;20514;-86
2021/11/17 10:45:09;;;;;;;10.48;9.98;;;13.80;77.40;;;;;;5019311;28;20045;-83
2021/11/17 10:47:45;;;;;;;9.50;8.82;;;13.90;77.40;;;;;;5042397;28;20025;-82
2021/11/17 10:50:17;;;;;;;9.32;8.93;;;14.00;77.40;;;;;;5035924;28;20386;-83
2021/11/17 10:52:58;;;;;;;11.50;10.90;;;14.00;77.40;;;;;;5047206;28;20039;-80
2021/11/17 10:55:27;;;;;;;11.10;10.40;;;14.00;77.40;;;;;;5035670;28;20033;-85
2021/11/17 10:57:54;;;;;;;10.55;9.65;;;14.10;77.40;;;;;;5049083;28;20107;-84
2021/11/17 11:00:24;;;;;;;11.00;10.30;;;14.10;77.40;;;;;;5052184;28;20056;-82
2021/11/17 11:02:51;;;;;;;10.38;9.88;;;14.20;77.40;;;;;;5048076;28;20029;-84
2021/11/17 11:05:19;;;;;;;10.70;10.20;;;14.20;77.30;;;;;;5045958;28;20033;-84
2021/11/17 11:07:55;;;;;;;10.55;10.00;;;14.10;77.30;;;;;;5045668;28;20029;-84
2021/11/17 11:10:27;;;;;;;11.18;10.40;;;14.20;77.40;;;;;;5049755;28;20025;-81
2021/11/17 11:12:54;;;;;;;9.95;9.38;;;14.20;77.40;;;;;;5050121;28;20029;-86
2021/11/17 11:15:29;;;;;;;10.57;9.98;;;14.20;77.30;;;;;;5047296;28;20033;-84
2021/11/17 11:18:04;;;;;;;13.38;12.63;;;14.30;77.40;;;;;;5046814;28;20025;-84
2021/11/17 11:20:36;;;;;;;13.05;12.32;;;14.30;77.20;;;;;;5037808;28;20034;-84
2021/11/17 11:23:05;;;;;;;12.63;11.80;;;14.30;77.10;;;;;;5041552;28;20032;-84
2021/11/17 11:25:41;;;;;;;12.52;11.65;;;14.40;77.10;;;;;;5050940;28;20041;-83
2021/11/17 11:28:20;;;;;;;13.07;12.32;;;14.40;77.00;;;;;;5048079;28;20029;-81
2021/11/17 11:31:01;;;;;;;12.63;12.02;;;14.50;77.00;;;;;;5049751;28;20029;-78
2021/11/17 11:33:48;;;;;;;13.27;12.68;;;14.50;76.80;;;;;;5051405;28;20033;-79
2021/11/17 11:36:14;;;;;;;13.07;12.27;;;14.60;76.70;;;;;;5054286;28;20393;-78
2021/11/17 11:38:56;;;;;;;13.43;12.70;;;14.60;76.60;;;;;;5044268;28;20029;-78
2021/11/17 11:41:25;;;;;;;11.75;11.25;;;14.70;76.50;;;;;;5041599;28;20043;-78
2021/11/17 11:44:23;;;;;;;11.65;11.13;;;14.70;76.30;;;;;;5045284;28;20045;-78
2021/11/17 11:46:55;;;;;;;13.02;12.32;;;14.80;76.30;;;;;;5041088;28;20045;-78
2021/11/17 11:49:33;;;;;;;13.00;12.40;;;14.80;76.30;;;;;;5047768;28;20025;-77
2021/11/17 11:52:07;;;;;;;12.48;11.88;;;14.80;76.30;;;;;;5048056;28;20029;-77
2021/11/17 11:54:53;;;;;;;12.60;11.88;;;14.80;76.20;;;;;;5043146;28;20021;-78
2021/11/17 11:57:36;;;;;;;12.27;11.68;;;14.70;76.20;;;;;;5044492;28;20040;-77
2021/11/17 12:00:31;;;;;;;12.30;11.60;;;14.70;76.30;;;;;;5048370;28;20040;-76
2021/11/17 12:02:58;;;;;;;11.38;10.88;;;14.60;76.50;;;;;;5041399;28;20032;-75
2021/11/17 12:05:36;;;;;;;11.13;10.63;;;14.60;76.50;;;;;;5037302;28;20048;-76
2021/11/17 12:08:19;;;;;;;11.68;11.15;;;14.60;76.50;;;;;;5052611;28;20028;-76
2021/11/17 12:10:57;;;;;;;12.10;11.50;;;14.60;76.50;;;;;;5046116;28;20500;-77
2021/11/17 12:13:26;;;;;;;12.20;11.50;;;14.60;77.20;;;;;;5048388;28;20041;-76
2021/11/17 12:16:14;;;;;;;11.80;11.13;;;14.70;76.40;;;;;;5054920;28;20367;-76
2021/11/17 12:18:49;;;;;;;11.82;11.13;;;14.70;76.40;;;;;;5047172;28;20033;-76
2021/11/17 12:21:29;;;;;;;11.20;10.60;;;14.70;76.30;;;;;;5051378;28;20414;-76
2021/11/17 12:24:12;;;;;;;11.27;10.77;;;14.70;76.30;;;;;;5049991;28;20032;-76
2021/11/17 12:26:42;;;;;;;12.13;11.52;;;14.70;76.20;;;;;;5052663;28;20378;-76
2021/11/17 12:29:19;;;;;;;12.07;11.27;;;14.70;76.20;;;;;;5053939;28;20108;-76
2021/11/17 12:31:58;;;;;;;12.10;11.40;;;14.70;76.30;;;;;;5048363;28;20036;-76
2021/11/17 12:34:31;;;;;;;10.90;10.40;;;14.60;76.20;;;;;;5051399;28;20035;-76
2021/11/17 12:37:09;;;;;;;12.10;11.50;;;14.60;76.30;;;;;;5047460;28;20041;-76
2021/11/17 12:40:09;;;;;;;11.10;10.60;;;14.60;76.30;;;;;;5047491;28;20040;-75
2021/11/17 12:42:36;;;;;;;12.07;11.43;;;14.70;76.40;;;;;;5011695;28;20057;-76
2021/11/17 12:45:25;;;;;;;11.55;10.95;;;14.70;76.20;;;;;;4992817;28;20045;-78
2021/11/17 12:47:59;;;;;;;11.02;10.32;;;14.70;76.20;;;;;;5008588;28;20052;-76
2021/11/17 12:50:35;;;;;;;11.55;11.02;;;14.70;76.10;;;;;;4974702;28;20057;-76
2021/11/17 12:53:20;;;;;;;11.73;11.13;;;14.80;76.10;;;;;;4991880;28;20042;-76
2021/11/17 12:55:46;;;;;;;12.30;11.60;;;14.80;76.10;;;;;;4993932;28;20049;-76
2021/11/17 12:58:18;;;;;;;10.70;10.20;;;14.90;76.00;;;;;;5008511;28;20038;-76
2021/11/17 13:00:56;;;;;;;10.85;10.35;;;15.00;75.80;;;;;;4991767;28;20034;-76
2021/11/17 13:03:48;;;;;;;11.18;10.68;;;15.00;75.60;;;;;;4992957;28;20037;-76
2021/11/17 13:06:40;;;;;;;11.95;11.35;;;15.00;75.70;;;;;;5000271;28;20060;-75
2021/11/17 13:09:11;;;;;;;12.13;11.57;;;15.00;75.70;;;;;;4998359;28;20368;-76
2021/11/17 13:11:59;;;;;;;11.55;11.05;;;15.00;75.60;;;;;;4995437;28;20435;-76
2021/11/17 13:14:32;;;;;;;12.52;11.88;;;15.10;75.60;;;;;;5012317;28;20487;-76
2021/11/17 13:17:21;;;;;;;13.43;12.80;;;15.10;75.50;;;;;;4995005;28;20041;-76
2021/11/17 13:19:58;;;;;;;13.35;12.75;;;15.10;75.40;;;;;;5049988;28;20068;-75
2021/11/17 13:22:39;;;;;;;13.07;12.48;;;15.20;75.30;;;;;;5039797;28;20040;-75
2021/11/17 13:25:26;;;;;;;13.38;12.57;;;15.20;75.30;;;;;;5035330;28;20037;-75
2021/11/17 13:27:57;;;;;;;13.02;12.43;;;15.20;75.20;;;;;;5058129;28;20396;-76
2021/11/17 13:30:33;;;;;;;;;;;15.20;75.20;;;;;;5053029;28;20041;-76
2021/11/17 13:33:17;;;;;;;12.25;11.65;;;15.30;75.20;;;;;;5052906;28;20490;-76
2021/11/17 13:35:44;;;;;;;12.50;11.80;;;15.30;75.10;;;;;;5052704;28;20044;-76
2021/11/17 13:38:21;;;;;;;14.07;13.48;;;15.30;75.00;;;;;;5057078;28;20025;-76
2021/11/17 13:40:52;;;;;;;13.32;12.73;;;15.30;75.00;;;;;;5052142;28;20040;-76
2021/11/17 13:43:18;;;;;;;13.82;13.13;;;15.30;75.90;;;;;;5050895;28;20029;-76
2021/11/17 13:45:46;;;;;;;15.20;14.50;;;15.20;75.10;;;;;;5051246;28;20048;-77
2021/11/17 13:48:13;;;;;;;13.60;13.00;;;15.20;75.10;;;;;;5056378;28;20044;-75
2021/11/17 13:50:39;;;;;;;14.65;13.75;;;15.20;75.20;;;;;;5053823;28;20040;-76
2021/11/17 13:53:07;;;;;;;14.82;14.13;;;15.20;75.20;;;;;;5052426;28;20052;-76
2021/11/17 13:55:35;;;;;;;14.23;13.52;;;15.20;75.20;;;;;;5061417;28;20068;-76
2021/11/17 13:58:02;;;;;;;14.13;13.43;;;15.20;75.10;;;;;;5035682;28;20045;-76
2021/11/17 14:00:28;;;;;;;13.88;13.27;;;15.20;75.10;;;;;;5062123;28;20393;-76
2021/11/17 14:02:55;;;;;;;13.65;13.05;;;15.20;75.10;;;;;;5080810;28;20036;-76
2021/11/17 14:05:21;;;;;;;14.10;13.48;;;15.20;75.00;;;;;;5055583;28;20033;-76
2021/11/17 14:07:48;;;;;;;15.68;14.88;;;15.20;74.90;;;;;;5077462;28;20036;-76
2021/11/17 14:10:17;;;;;;;15.60;14.80;;;15.30;75.00;;;;;;5052157;28;20052;-76
2021/11/17 14:12:43;;;;;;;15.38;14.60;;;15.30;74.90;;;;;;5052004;28;20049;-76
2021/11/17 14:15:10;;;;;;;14.93;14.23;;;15.30;74.80;;;;;;5053800;28;20041;-77
2021/11/17 14:17:36;;;;;;;15.02;14.32;;;15.30;74.80;;;;;;5053784;28;20389;-76
2021/11/17 14:20:04;;;;;;;14.55;13.85;;;15.20;74.70;;;;;;5051454;28;20040;-76
2021/11/17 14:22:30;;;;;;;13.13;12.52;;;15.20;74.70;;;;;;5051642;28;20032;-76
2021/11/17 14:25:02;;;;;;;13.38;12.77;;;15.20;74.70;;;;;;5050511;28;20035;-76
2021/11/17 14:27:28;;;;;;;;;;;15.10;74.80;;;;;;5053785;28;20045;-76
2021/11/17 14:29:58;;;;;;;14.07;13.48;;;15.00;74.80;;;;;;5070956;28;19912;-76
2021/11/17 14:32:35;;;;;;;13.27;12.67;;;15.00;74.90;;;;;;5050923;28;20029;-76
2021/11/17 14:35:02;;;;;;;13.50;12.90;;;15.00;75.00;;;;;;5055178;28;20028;-76
2021/11/17 14:37:29;;;;;;;13.60;13.00;;;14.90;75.00;;;;;;5051364;28;20487;-76
2021/11/17 14:39:55;;;;;;;13.30;12.70;;;14.90;75.00;;;;;;5051892;28;20045;-76
2021/11/17 14:42:24;;;;;;;12.63;12.02;;;14.90;75.10;;;;;;5054839;28;20489;-76
2021/11/17 14:44:52;;;;;;;13.63;13.02;;;14.80;75.20;;;;;;5054152;28;20037;-75
2021/11/17 14:47:19;;;;;;;13.30;12.70;;;14.80;75.20;;;;;;5055477;28;20045;-76
2021/11/17 14:49:45;;;;;;;13.48;12.88;;;14.80;75.20;;;;;;5052613;28;20029;-76
2021/11/17 14:52:16;;;;;;;13.55;12.80;;;14.80;75.30;;;;;;5050792;28;20040;-76
2021/11/17 14:54:42;;;;;;;13.82;13.23;;;14.70;75.30;;;;;;5052083;28;20032;-76
2021/11/17 14:57:09;;;;;;;13.90;13.30;;;14.80;75.30;;;;;;5051393;28;20040;-76
2021/11/17 14:59:35;;;;;;;13.45;12.85;;;14.70;75.30;;;;;;5053719;28;20040;-76
2021/11/17 15:02:01;;;;;;;13.30;12.70;;;14.70;75.30;;;;;;5072916;28;20048;-76
2021/11/17 15:04:27;;;;;;;13.27;12.68;;;14.70;75.30;;;;;;5051671;28;20389;-75
2021/11/17 15:06:53;;;;;;;14.32;13.63;;;14.70;75.30;;;;;;5050938;28;20048;-76
2021/11/17 15:09:20;;;;;;;13.98;13.18;;;14.70;75.30;;;;;;5052467;28;20056;-75
2021/11/17 15:11:51;;;;;;;13.57;12.98;;;14.70;75.30;;;;;;5029980;28;20052;-77
2021/11/17 15:14:17;;;;;;;14.57;13.88;;;14.70;75.30;;;;;;5040280;28;20029;-77
2021/11/17 15:16:43;;;;;;;14.05;13.38;;;14.70;75.30;;;;;;5035650;28;20036;-79
2021/11/17 15:19:10;;;;;;;13.35;12.75;;;14.70;75.40;;;;;;5053417;28;20033;-78
2021/11/17 15:21:36;;;;;;;13.90;13.20;;;14.70;75.40;;;;;;5045757;28;20029;-78
2021/11/17 15:24:02;;;;;;;12.75;11.77;;;14.70;75.40;;;;;;5039181;28;20043;-78
2021/11/17 15:26:28;;;;;;;13.55;12.88;;;14.70;75.30;;;;;;5039685;28;20041;-79
2021/11/17 15:28:56;;;;;;;17.08;14.38;;;14.70;75.30;;;;;;5034213;28;20036;-79
2021/11/17 15:31:26;;;;;;;14.30;13.40;;;14.70;75.30;;;;;;5053756;28;20068;-79
2021/11/17 15:33:52;;;;;;;15.15;14.23;;;14.70;75.30;;;;;;5034512;28;20057;-79
2021/11/17 15:36:18;;;;;;;15.30;14.50;;;14.70;75.30;;;;;;5027621;28;20068;-79
2021/11/17 15:38:45;;;;;;;15.68;14.77;;;14.70;75.30;;;;;;5028044;28;20048;-78
2021/11/17 15:41:15;;;;;;;13.70;13.10;;;14.70;75.30;;;;;;5040667;28;20033;-78
2021/11/17 15:43:46;;;;;;;12.15;11.55;;;14.70;75.40;;;;;;5034443;28;20033;-77
2021/11/17 15:46:12;;;;;;;12.68;12.07;;;14.70;75.40;;;;;;5043337;28;20060;-79
2021/11/17 15:48:38;;;;;;;13.25;12.65;;;14.70;75.40;;;;;;5035116;28;20037;-76